Главная страница
METAR-TAF:

METAR-TAF

Аэропорты :

Мардин, Турция

широта: 37-13-58N, долгота: 40-38-26E, высота над уровнем моря: 527 м

Текущие метеонаблюдения

Эта сводка был подготовлена 4 часа и 54 минут назад, в 14:50 UTC
Ветер 4 Узел от западный, изменяющийся между юго-западный и северо-западный
Температура 29°C
Влажность 29%
Давление 1009 hPa
Видимость 10 км и более
небольшая облачность на высоте 4000 фута

METAR: LTCR 171450Z 26004KT 220V310 9999 FEW040 29/09 Q1009

Время: 22:44 (19:44 UTC)

Прогноз

Эта сводка был подготовлена 6 часа и 4 минут назад, в 13:40 UTC
Прогноз действительный с 17-го 15 UTC до 17-го 24 UTC
Ветер 8 Узел от западно-северо-западный
Видимость 10 км и более
Нет облачности ниже 1500 м, и нет кучево-дождевой облачности

TAF: LTCR 171340Z 1715/1724 30008KT CAVOK

Метеонаблюдения и прогнозы для более 4000 аэропортов (сводки METAR и TAF).

Имеющиеся станции представлены на карте желтыми и красными точками.

Чтобы увидеть название станции, наведите на нее мышь.

Затем щелкните, чтобы увидеть метеонаблюдения и метеопрогнозы.

Управление картой: чтобы увеличить масштаб, щелкните зеленые кнопки с черным крестиком; чтобы уменьшить масштаб, щелкните зеленую кнопку с тире; для просмотра соседних карт щелкайте зеленые стрелки.


METAR-TAF: